Time;durP1;ratioP1;P1;durP2;ratioP2;P2;SDS_P1;SDS_P2;PMS_P1;PMS_P2;Temp;Humidity;BMP_temperature;BMP_pressure;BME280_temperature;BME280_humidity;BME280_pressure;Samples;Min_cycle;Max_cycle;Signal;HPM_P1;HPM_P2
2022/05/12 00:01:54;;;;;;;28.55;9.80;;;;;;;10.57;100.00;99127.13;6239897;23;20146;-63
2022/05/12 00:04:39;;;;;;;25.65;10.63;;;;;;;10.41;100.00;99105.53;6215544;23;20404;-69
2022/05/12 00:07:23;;;;;;;32.20;10.48;;;;;;;10.41;100.00;99112.59;6250518;23;20031;-63
2022/05/12 00:10:09;;;;;;;27.20;10.27;;;;;;;10.38;100.00;99104.75;6238328;23;20126;-63
2022/05/12 00:12:57;;;;;;;29.80;11.20;;;;;;;10.43;100.00;99129.31;6217565;23;20027;-63
2022/05/12 00:15:42;;;;;;;25.08;10.85;;;;;;;10.51;100.00;99129.97;6227938;23;20027;-63
2022/05/12 00:18:27;;;;;;;26.45;10.00;;;;;;;10.68;100.00;99127.69;6228719;23;20027;-63
2022/05/12 00:21:12;;;;;;;28.02;9.32;;;;;;;10.86;100.00;99121.78;6228738;23;20066;-63
2022/05/12 00:23:57;;;;;;;31.17;10.07;;;;;;;10.89;100.00;99122.59;6249108;23;20030;-63
2022/05/12 00:26:42;;;;;;;22.17;9.68;;;;;;;10.92;100.00;99113.66;6197779;23;20106;-63
2022/05/12 00:29:27;;;;;;;19.42;9.00;;;;;;;10.87;100.00;99103.19;6206255;23;20105;-64
2022/05/12 00:32:11;;;;;;;32.22;10.10;;;;;;;10.86;100.00;99109.41;6216881;23;20442;-64
2022/05/12 00:34:55;;;;;;;24.05;9.43;;;;;;;10.72;100.00;99100.16;6215952;23;20027;-65
2022/05/12 00:37:40;;;;;;;24.20;9.95;;;;;;;10.61;100.00;99110.22;6216345;23;20099;-64
2022/05/12 00:40:24;;;;;;;23.25;9.25;;;;;;;10.53;100.00;99107.81;6215656;23;20111;-64
2022/05/12 00:43:36;;;;;;;21.40;8.82;;;;;;;10.64;100.00;99104.84;6236610;23;20027;-72
2022/05/12 00:46:24;;;;;;;23.60;9.38;;;;;;;10.56;100.00;99114.81;6193288;23;20035;-71
2022/05/12 00:49:21;;;;;;;22.20;9.05;;;;;;;10.54;100.00;99116.63;6241181;23;20031;-63
2022/05/12 00:52:11;;;;;;;15.85;8.10;;;;;;;10.61;100.00;99116.41;6241502;23;20062;-62
2022/05/12 00:55:06;;;;;;;20.55;9.40;;;;;;;10.62;100.00;99107.53;6248553;23;20409;-65
2022/05/12 00:57:55;;;;;;;18.58;8.63;;;;;;;10.64;100.00;99116.28;6250511;23;20535;-63
2022/05/12 01:00:41;;;;;;;22.48;8.85;;;;;;;10.57;100.00;99087.38;6241664;23;20362;-62
2022/05/12 01:03:28;;;;;;;18.40;9.32;;;;;;;10.83;100.00;99105.97;6227210;23;20081;-64
2022/05/12 01:06:14;;;;;;;26.38;8.27;;;;;;;10.92;100.00;99095.94;6241074;23;20031;-63
2022/05/12 01:09:00;;;;;;;24.55;8.48;;;;;;;10.75;100.00;99100.03;6249733;23;20030;-63
2022/05/12 01:11:46;;;;;;;22.77;8.15;;;;;;;10.50;100.00;99084.06;6218335;23;20031;-63
2022/05/12 01:14:31;;;;;;;20.83;8.13;;;;;;;10.41;100.00;99096.72;6251099;23;20070;-63
2022/05/12 01:17:18;;;;;;;23.40;7.97;;;;;;;10.33;100.00;99091.66;6250927;23;20062;-70
2022/05/12 01:20:03;;;;;;;21.05;8.07;;;;;;;10.29;100.00;99083.84;6241041;23;20082;-62
2022/05/12 01:22:59;;;;;;;20.58;7.68;;;;;;;10.23;100.00;99082.22;6238776;23;20154;-63
2022/05/12 01:25:44;;;;;;;16.88;7.07;;;;;;;10.14;100.00;99097.50;6250950;23;20117;-63
2022/05/12 01:28:29;;;;;;;17.67;7.22;;;;;;;10.15;100.00;99084.22;6240814;23;20374;-62
2022/05/12 01:31:19;;;;;;;23.55;7.90;;;;;;;10.28;100.00;99090.91;6216587;23;20588;-71
2022/05/12 01:34:08;;;;;;;18.20;7.15;;;;;;;10.28;100.00;99082.94;6251064;23;20034;-63
2022/05/12 01:36:52;;;;;;;18.98;7.63;;;;;;;10.40;100.00;99087.88;6218026;23;20146;-62
2022/05/12 01:39:38;;;;;;;16.98;7.72;;;;;;;10.55;100.00;99089.19;6241009;22;20031;-63
2022/05/12 01:42:23;;;;;;;21.33;7.18;;;;;;;10.46;100.00;99087.72;6248633;23;20035;-63
2022/05/12 01:45:08;;;;;;;17.25;7.03;;;;;;;10.25;100.00;99071.59;6249491;23;20350;-63
2022/05/12 01:47:53;;;;;;;16.52;7.05;;;;;;;10.35;100.00;99080.97;6228288;23;20031;-62
2022/05/12 01:50:40;;;;;;;13.27;6.60;;;;;;;10.44;100.00;99060.38;6248549;23;20063;-63
2022/05/12 01:53:26;;;;;;;13.77;6.85;;;;;;;10.44;100.00;99060.38;6196616;23;20508;-63
2022/05/12 01:56:10;;;;;;;22.80;6.72;;;;;;;10.44;100.00;99062.16;6218100;23;20038;-61
2022/05/12 01:58:55;;;;;;;17.77;6.25;;;;;;;10.49;100.00;99049.63;6240801;23;20408;-62
2022/05/12 02:01:39;;;;;;;17.75;6.53;;;;;;;10.44;100.00;99076.28;6227942;23;20476;-63
2022/05/12 02:04:24;;;;;;;20.98;6.90;;;;;;;10.49;100.00;99073.50;6248803;23;20027;-69
2022/05/12 02:07:09;;;;;;;16.90;6.57;;;;;;;10.71;100.00;99070.13;6250963;23;20027;-63
2022/05/12 02:09:53;;;;;;;;;;;;;;;10.98;99.30;99076.31;6216221;23;20031;-62
2022/05/12 02:12:38;;;;;;;10.77;5.38;;;;;;;11.09;98.84;99076.84;6250709;23;19957;-64
2022/05/12 02:15:24;;;;;;;16.75;6.10;;;;;;;11.06;96.27;99040.66;6218184;23;20038;-63
2022/05/12 02:18:10;;;;;;;15.10;6.07;;;;;;;11.37;95.94;99070.56;6206827;23;20069;-61
2022/05/12 02:20:54;;;;;;;10.25;5.93;;;;;;;11.53;94.70;99069.09;6250290;23;20026;-64
2022/05/12 02:23:38;;;;;;;12.32;6.15;;;;;;;11.58;94.01;99053.00;6192306;23;20422;-71
2022/05/12 02:26:24;;;;;;;14.95;5.30;;;;;;;11.65;91.45;99067.84;6215427;23;20031;-62
2022/05/12 02:29:08;;;;;;;14.02;5.45;;;;;;;11.54;92.65;99040.75;6212822;23;20397;-62
2022/05/12 02:31:53;;;;;;;10.60;5.25;;;;;;;11.66;91.14;99067.78;6247949;23;20114;-67
2022/05/12 02:34:38;;;;;;;11.55;5.60;;;;;;;11.61;92.68;99066.22;6248338;23;20504;-63
2022/05/12 02:37:23;;;;;;;;;;;;;;;11.49;95.23;99069.25;6238041;23;20090;-64
2022/05/12 02:40:11;;;;;;;10.73;5.40;;;;;;;11.67;95.25;99064.19;6227531;23;19923;-62
2022/05/12 02:42:57;;;;;;;11.57;4.85;;;;;;;11.83;93.59;99060.06;6237675;23;20043;-62
2022/05/12 02:45:41;;;;;;;10.70;5.10;;;;;;;11.59;93.13;99034.38;6250533;23;20031;-63
2022/05/12 02:48:38;;;;;;;11.20;5.50;;;;;;;11.65;94.79;99043.94;6215612;23;20031;-63
2022/05/12 02:51:22;;;;;;;13.07;4.90;;;;;;;11.76;94.39;99057.69;6226122;23;20418;-72
2022/05/12 02:54:07;;;;;;;12.73;5.25;;;;;;;11.57;94.99;99051.28;6217209;23;20111;-65
2022/05/12 02:56:55;;;;;;;10.10;4.40;;;;;;;11.62;95.12;99067.94;6237464;23;20030;-64
2022/05/12 02:59:39;;;;;;;14.85;5.07;;;;;;;11.37;97.29;99030.75;6250076;23;20030;-63
2022/05/12 03:02:24;;;;;;;12.27;4.68;;;;;;;11.54;98.78;99048.72;6239621;23;20047;-63
2022/05/12 03:05:08;;;;;;;9.27;4.32;;;;;;;11.70;98.69;99052.59;6196289;23;20089;-65
2022/05/12 03:07:53;;;;;;;10.93;4.07;;;;;;;11.93;98.58;99055.28;6217775;23;20031;-63
2022/05/12 03:10:39;;;;;;;10.20;4.30;;;;;;;12.01;97.05;99042.59;6174038;23;20043;-74
2022/05/12 03:13:23;;;;;;;11.07;4.13;;;;;;;11.92;98.21;99038.50;6248759;23;20425;-62
2022/05/12 03:16:07;;;;;;;9.98;4.03;;;;;;;12.07;97.85;99037.06;6223094;23;20026;-64
2022/05/12 03:18:53;;;;;;;19.55;4.90;;;;;;;12.39;97.49;99061.47;6250732;23;20419;-63
2022/05/12 03:21:38;;;;;;;12.18;4.30;;;;;;;12.28;98.63;99060.16;6175730;23;20046;-63
2022/05/12 03:24:22;;;;;;;13.00;3.72;;;;;;;12.25;98.88;99065.59;6229584;23;20456;-63
2022/05/12 03:27:07;;;;;;;10.52;4.18;;;;;;;12.20;96.71;99049.84;6208426;23;20058;-62
2022/05/12 03:29:52;;;;;;;15.60;4.22;;;;;;;12.17;97.71;99057.91;6197138;23;20031;-74
2022/05/12 03:32:36;;;;;;;9.80;4.20;;;;;;;12.11;97.43;99052.81;6242264;23;20104;-63
2022/05/12 03:35:21;;;;;;;11.30;4.10;;;;;;;12.05;98.40;99036.25;6249929;23;20031;-63
2022/05/12 03:38:06;;;;;;;10.68;4.22;;;;;;;12.09;95.69;99036.06;6228921;23;20074;-63
2022/05/12 03:40:51;;;;;;;10.25;3.90;;;;;;;12.12;98.05;99051.91;6249269;22;20027;-62
2022/05/12 03:46:39;;;;;;;8.93;4.13;;;;;;;12.32;95.91;99044.03;6219265;23;20035;-63
2022/05/12 03:49:23;;;;;;;13.30;4.20;;;;;;;12.22;96.29;99032.03;6240506;23;20370;-63
2022/05/12 03:52:08;;;;;;;14.68;4.25;;;;;;;12.18;96.87;99033.06;6218927;23;20035;-67
2022/05/12 03:54:52;;;;;;;10.00;3.80;;;;;;;12.40;98.16;99046.41;6229108;23;20073;-61
2022/05/12 03:57:38;;;;;;;11.50;3.65;;;;;;;12.39;99.15;99040.19;6251651;23;20162;-62
2022/05/12 04:00:25;;;;;;;11.57;4.10;;;;;;;12.45;99.62;99044.41;6219088;23;20548;-63
2022/05/12 04:03:10;;;;;;;9.18;4.30;;;;;;;12.56;99.46;99048.41;6249267;23;20069;-64
2022/05/12 04:05:56;;;;;;;8.52;4.32;;;;;;;12.46;99.83;99031.06;6228784;23;20069;-63
2022/05/12 04:08:42;;;;;;;13.05;4.53;;;;;;;12.60;100.00;99043.81;6251446;23;20062;-63
2022/05/12 04:11:26;;;;;;;10.05;4.25;;;;;;;12.52;100.00;99040.59;6229234;23;20130;-63
2022/05/12 04:14:10;;;;;;;8.38;4.38;;;;;;;12.59;100.00;99032.31;6218880;23;20074;-61
2022/05/12 04:16:55;;;;;;;11.05;4.45;;;;;;;12.78;100.00;99028.00;6241246;23;20402;-67
2022/05/12 04:19:41;;;;;;;18.67;5.25;;;;;;;12.96;99.52;99024.59;6219699;23;20481;-67
2022/05/12 04:22:25;;;;;;;11.98;4.60;;;;;;;13.10;98.05;99034.69;6227347;23;20176;-64
2022/05/12 04:25:10;;;;;;;20.00;4.80;;;;;;;13.29;99.04;99035.63;6251722;23;20031;-65
2022/05/12 04:27:56;;;;;;;11.95;4.07;;;;;;;13.31;98.17;99025.78;6197009;23;20516;-64
2022/05/12 04:30:40;;;;;;;9.93;4.13;;;;;;;13.53;98.60;99026.63;6227573;23;20370;-63
2022/05/12 04:36:28;;;;;;;8.68;4.15;;;;;;;13.40;98.94;99034.25;6250162;23;20078;-64
2022/05/12 04:39:12;;;;;;;11.23;4.80;;;;;;;13.23;100.00;99025.25;6251190;23;20536;-64
2022/05/12 04:41:57;;;;;;;14.82;4.72;;;;;;;13.19;100.00;99026.31;6241135;23;20066;-63
2022/05/12 04:44:41;;;;;;;15.25;4.13;;;;;;;13.15;100.00;99030.03;6250719;23;20028;-72
2022/05/12 04:47:26;;;;;;;14.43;4.20;;;;;;;13.18;100.00;99035.25;6218299;23;20078;-63
2022/05/12 04:50:14;;;;;;;11.35;4.78;;;;;;;13.20;100.00;99014.72;6248279;23;20027;-62
2022/05/12 04:53:01;;;;;;;14.18;5.03;;;;;;;13.52;100.00;99024.88;6218080;23;20383;-64
2022/05/12 04:55:47;;;;;;;11.05;4.15;;;;;;;13.66;100.00;99023.31;6228155;23;20199;-64
2022/05/12 04:58:31;;;;;;;10.48;4.30;;;;;;;13.56;100.00;99007.81;6250411;23;20374;-63
2022/05/12 05:01:16;;;;;;;7.78;4.20;;;;;;;13.80;100.00;99017.38;6250518;23;20404;-64
2022/05/12 05:04:03;;;;;;;13.35;4.63;;;;;;;13.73;100.00;99018.63;6248424;23;20080;-71
2022/05/12 05:06:47;;;;;;;11.60;4.78;;;;;;;13.67;100.00;99014.41;6250528;23;20027;-64
2022/05/12 05:09:32;;;;;;;8.13;4.53;;;;;;;13.73;100.00;99013.28;6248292;23;20031;-63
2022/05/12 05:12:16;;;;;;;;;;;;;;;13.78;100.00;99021.94;6251234;23;20082;-64
2022/05/12 05:15:00;;;;;;;13.52;4.70;;;;;;;13.83;100.00;99015.47;6250637;23;19919;-64
2022/05/12 05:17:46;;;;;;;12.20;4.88;;;;;;;13.92;100.00;99003.50;6240462;23;20357;-66
2022/05/12 05:20:30;;;;;;;;;;;;;;;14.12;100.00;99010.59;6206947;23;20107;-65
2022/05/12 05:23:15;;;;;;;11.55;5.03;;;;;;;14.27;100.00;99015.25;6238644;23;20302;-77
2022/05/12 05:26:00;;;;;;;9.88;4.95;;;;;;;14.21;100.00;99013.75;6217484;23;20027;-65
2022/05/12 05:28:44;;;;;;;13.77;5.00;;;;;;;14.08;100.00;99009.03;6215043;23;20425;-64
2022/05/12 05:31:29;;;;;;;11.00;4.88;;;;;;;14.01;100.00;98996.91;6196183;23;20034;-64
2022/05/12 05:34:14;;;;;;;16.20;5.30;;;;;;;14.00;100.00;98993.34;6239676;23;20039;-63
2022/05/12 05:36:58;;;;;;;;;;;;;;;14.10;100.00;98994.69;6217677;23;20027;-66
2022/05/12 05:39:43;;;;;;;12.00;4.38;;;;;;;13.93;100.00;98976.78;6228125;22;20396;-65
2022/05/12 05:42:28;;;;;;;9.48;4.57;;;;;;;13.93;100.00;98974.13;6217045;23;20077;-81
2022/05/12 05:45:16;;;;;;;14.88;4.75;;;;;;;14.07;100.00;98978.81;6227934;23;20054;-65
2022/05/12 05:48:05;;;;;;;15.93;4.93;;;;;;;14.25;100.00;98977.13;6237705;23;20027;-63
2022/05/12 05:53:54;;;;;;;17.50;4.88;;;;;;;14.60;100.00;98968.31;6240001;23;20051;-65
2022/05/12 05:56:38;;;;;;;11.18;4.72;;;;;;;14.52;100.00;98975.81;6205189;23;20465;-65
2022/05/12 05:59:23;;;;;;;14.05;5.40;;;;;;;14.53;100.00;98962.41;6248758;23;20039;-65
2022/05/12 06:02:08;;;;;;;;;;;;;;;14.68;100.00;98992.81;6251384;23;20027;-68
2022/05/12 06:04:53;;;;;;;12.27;4.57;;;;;;;14.79;100.00;98983.31;6217355;23;19921;-74
2022/05/12 06:07:39;;;;;;;13.60;4.93;;;;;;;15.00;100.00;98990.28;6218141;23;20086;-63
2022/05/12 06:10:24;;;;;;;14.73;5.18;;;;;;;14.99;100.00;98996.53;6237575;23;20031;-63
2022/05/12 06:13:09;;;;;;;15.20;5.25;;;;;;;14.99;100.00;98990.34;6227196;23;20035;-64
2022/05/12 06:15:53;;;;;;;17.52;5.53;;;;;;;15.24;100.00;98983.69;6249309;23;20501;-63
2022/05/12 06:18:38;;;;;;;14.13;5.05;;;;;;;15.56;100.00;98985.59;6250095;23;20425;-62
2022/05/12 06:21:22;;;;;;;15.00;4.20;;;;;;;15.83;100.00;98992.13;6250298;23;20051;-63
2022/05/12 06:24:07;;;;;;;9.85;4.40;;;;;;;15.23;100.00;98959.75;6249858;23;20030;-73
2022/05/12 06:26:51;;;;;;;8.48;4.97;;;;;;;15.45;100.00;98974.59;6238809;23;20031;-64
2022/05/12 06:29:36;;;;;;;11.30;4.88;;;;;;;15.81;100.00;98985.16;6236703;23;20026;-64
2022/05/12 06:32:20;;;;;;;;;;;;;;;15.83;100.00;98984.13;6197238;23;20405;-63
2022/05/12 06:35:08;;;;;;;10.77;5.38;;;;;;;15.99;99.94;98968.13;6238334;23;20403;-66
2022/05/12 06:37:53;;;;;;;13.80;5.32;;;;;;;15.97;99.65;98973.56;6206777;23;20485;-63
2022/05/12 06:40:39;;;;;;;12.52;4.68;;;;;;;16.10;98.15;98971.09;6227656;23;20070;-63
2022/05/12 06:43:24;;;;;;;13.80;5.35;;;;;;;16.23;97.72;98964.09;6239372;23;20042;-69
2022/05/12 06:46:10;;;;;;;10.73;4.50;;;;;;;16.61;96.14;98955.69;6240811;23;20046;-64
2022/05/12 06:48:55;;;;;;;14.15;4.65;;;;;;;16.61;96.24;98944.09;6224987;23;20482;-63
2022/05/12 06:51:39;;;;;;;10.52;4.65;;;;;;;16.85;96.53;98958.78;6250031;23;20109;-63
2022/05/12 06:54:24;;;;;;;14.85;4.28;;;;;;;16.82;96.28;98951.75;6240819;23;20410;-64
2022/05/12 06:57:09;;;;;;;11.45;4.60;;;;;;;17.19;95.28;98947.78;6229458;23;20077;-63
2022/05/12 06:59:55;;;;;;;10.75;4.57;;;;;;;17.39;92.67;98945.66;6229728;23;20027;-64
2022/05/12 07:02:40;;;;;;;15.38;4.85;;;;;;;17.58;91.63;98932.00;6217725;23;20027;-64
2022/05/12 07:05:25;;;;;;;;;;;;;;;17.75;91.34;98946.09;6252719;23;20163;-64
2022/05/12 07:08:10;;;;;;;12.88;4.45;;;;;;;17.97;90.58;98951.84;6217176;23;19965;-63
2022/05/12 07:10:54;;;;;;;7.97;3.45;;;;;;;18.19;86.86;98956.72;6251342;23;20066;-64
2022/05/12 07:13:40;;;;;;;13.85;4.28;;;;;;;18.21;83.56;98954.81;6251727;23;20030;-64
2022/05/12 07:16:25;;;;;;;8.30;3.72;;;;;;;18.41;82.22;98951.75;6198407;23;20026;-64
2022/05/12 07:19:11;;;;;;;13.93;4.00;;;;;;;18.30;83.63;98937.25;6219144;23;20074;-63
2022/05/12 07:28:04;;;;;;;9.23;3.15;;;;;;;18.82;82.33;98944.53;6252233;23;20035;-66
2022/05/12 07:31:03;;;;;;;6.53;3.05;;;;;;;18.96;78.22;98946.28;6197888;23;20118;-64
2022/05/12 07:33:49;;;;;;;8.88;2.90;;;;;;;19.07;78.32;98946.44;6206271;23;20436;-65
2022/05/12 07:36:37;;;;;;;5.65;2.70;;;;;;;19.12;77.08;98939.81;6252050;23;20531;-63
2022/05/12 07:39:28;;;;;;;11.38;2.83;;;;;;;19.29;75.76;98927.91;6241837;23;20090;-62
2022/05/12 07:42:13;;;;;;;10.10;2.60;;;;;;;19.58;73.20;98914.19;6250658;23;20043;-72
2022/05/12 07:44:57;;;;;;;9.90;2.40;;;;;;;19.70;72.10;98931.31;6241615;23;20073;-64
2022/05/12 07:47:42;;;;;;;10.70;2.95;;;;;;;19.66;73.22;98927.13;6249676;23;20042;-68
2022/05/12 07:50:28;;;;;;;3.50;2.30;;;;;;;19.65;71.37;98928.94;6195574;23;20572;-65
2022/05/12 07:53:13;;;;;;;7.78;2.20;;;;;;;19.65;72.22;98923.56;6225652;23;20050;-63
2022/05/12 07:55:58;;;;;;;8.57;2.63;;;;;;;20.43;68.66;98906.25;6250351;23;20081;-64
2022/05/12 07:58:43;;;;;;;8.50;2.55;;;;;;;21.11;64.38;98916.31;6227113;23;20149;-64
2022/05/12 08:01:28;;;;;;;6.00;2.15;;;;;;;21.23;64.42;98907.28;6194285;23;20362;-69
2022/05/12 08:04:13;;;;;;;8.45;2.67;;;;;;;21.27;64.48;98900.69;6227041;23;20031;-67
2022/05/12 08:06:59;;;;;;;8.77;2.25;;;;;;;22.41;60.94;98906.81;6237684;23;20481;-65
2022/05/12 08:09:44;;;;;;;8.68;2.60;;;;;;;23.59;54.88;98903.97;6227182;23;20081;-65
2022/05/12 08:12:28;;;;;;;5.72;2.45;;;;;;;24.26;50.03;98880.81;6250087;23;20049;-65
2022/05/12 08:15:13;;;;;;;;;;;;;;;26.05;50.21;98893.75;6229156;23;20073;-64
2022/05/12 08:17:58;;;;;;;5.53;2.25;;;;;;;25.13;46.41;98891.72;6197328;23;20360;-65
2022/05/12 08:20:44;;;;;;;6.28;2.30;;;;;;;25.20;47.03;98883.88;6239861;23;20027;-76
2022/05/12 08:23:29;;;;;;;11.75;2.33;;;;;;;26.14;44.70;98883.88;6251473;23;20082;-64
2022/05/12 08:26:14;;;;;;;15.85;2.80;;;;;;;24.43;47.27;98882.00;6216225;23;20035;-66
2022/05/12 08:28:58;;;;;;;7.80;2.33;;;;;;;25.48;47.14;98875.69;6218685;23;20097;-66
2022/05/12 08:31:42;;;;;;;;;;;;;;;25.54;47.75;98875.13;6251591;23;20034;-66
2022/05/12 08:34:28;;;;;;;8.38;2.92;;;;;;;24.43;50.04;98872.03;6205798;23;20403;-67
2022/05/12 08:37:12;;;;;;;9.32;2.40;;;;;;;24.24;50.97;98857.53;6195262;23;20046;-68
2022/05/12 08:39:57;;;;;;;6.57;2.60;;;;;;;23.51;53.16;98837.94;6226122;22;20050;-73
2022/05/12 08:42:45;;;;;;;10.93;2.78;;;;;;;23.99;53.51;98852.63;6239522;23;20358;-67
2022/05/12 08:45:30;;;;;;;5.95;2.38;;;;;;;25.30;48.22;98863.88;6213585;23;20409;-73
2022/05/12 08:48:15;;;;;;;10.27;2.20;;;;;;;27.01;42.53;98856.84;6215188;23;20101;-66
2022/05/12 08:51:00;;;;;;;7.10;2.50;;;;;;;29.40;37.20;98842.78;6205324;23;20089;-68
2022/05/12 08:53:50;;;;;;;4.72;2.40;;;;;;;28.94;34.87;98839.81;6248661;23;20059;-66
2022/05/12 08:56:35;;;;;;;5.38;2.50;;;;;;;28.50;36.92;98821.97;6194827;23;20477;-65
2022/05/12 08:59:20;;;;;;;6.97;2.65;;;;;;;30.13;32.43;98843.53;6236290;23;20484;-65
2022/05/12 09:02:57;;;;;;;5.38;2.08;;;;;;;28.40;39.23;98837.63;6215448;23;20074;-68
2022/05/12 09:05:55;;;;;;;6.15;2.58;;;;;;;27.70;41.65;98833.31;6123492;23;20044;-65
2022/05/12 09:09:03;;;;;;;6.97;2.03;;;;;;;29.34;38.83;98839.88;6125915;23;20073;-65
2022/05/12 09:11:56;;;;;;;9.07;2.50;;;;;;;28.15;37.50;98823.00;6105407;23;20507;-65
2022/05/12 09:14:56;;;;;;;5.82;2.17;;;;;;;26.63;44.56;98831.81;6116347;23;20104;-65
2022/05/12 09:17:48;;;;;;;4.45;2.15;;;;;;;26.76;46.15;98800.50;6095492;23;20142;-65
2022/05/12 09:20:34;;;;;;;11.85;2.80;;;;;;;27.84;43.49;98815.53;6117342;23;20068;-75
2022/05/12 09:23:19;;;;;;;5.57;2.33;;;;;;;27.85;43.87;98818.06;6116928;23;20435;-67
2022/05/12 09:26:31;;;;;;;5.10;2.60;;;;;;;28.47;43.63;98817.72;6093776;23;20028;-67
2022/05/12 09:29:18;;;;;;;5.32;2.55;;;;;;;28.31;42.95;98797.66;6054467;23;20100;-65
2022/05/12 09:32:03;;;;;;;6.43;2.60;;;;;;;28.84;40.12;98806.38;6127946;23;20111;-67
2022/05/12 09:35:01;;;;;;;;;;;;;;;31.09;37.13;98791.03;6127775;23;20096;-66
2022/05/12 09:37:50;;;;;;;7.70;2.53;;;;;;;28.80;38.56;98784.00;6115669;23;19975;-67
2022/05/12 09:40:35;;;;;;;6.30;2.38;;;;;;;27.33;44.48;98783.66;6155757;23;20078;-66
2022/05/12 09:43:32;;;;;;;4.18;1.92;;;;;;;28.51;42.58;98780.03;6195115;23;20058;-64
2022/05/12 09:46:16;;;;;;;6.15;2.40;;;;;;;28.77;42.20;98787.09;6248615;23;20055;-69
2022/05/12 09:49:20;;;;;;;7.78;2.30;;;;;;;29.97;37.34;98788.91;6249236;23;20429;-68
2022/05/12 09:52:18;;;;;;;9.10;2.42;;;;;;;28.00;41.11;98778.31;6225410;23;20034;-65
2022/05/12 09:55:13;;;;;;;4.10;2.35;;;;;;;28.33;43.64;98765.66;6213503;23;20055;-68
2022/05/12 09:58:06;;;;;;;7.70;2.70;;;;;;;29.50;37.67;98763.38;6237822;23;20031;-71
2022/05/12 10:01:11;;;;;;;7.57;2.67;;;;;;;28.73;40.17;98757.56;6215527;23;20202;-64
2022/05/12 10:10:27;;;;;;;8.00;2.10;;;;;;;28.97;37.30;98763.91;6095471;23;20032;-66
2022/05/12 10:13:31;;;;;;;4.47;2.47;;;;;;;30.23;34.81;98753.09;6092476;23;20033;-65
2022/05/12 10:16:23;;;;;;;4.97;2.05;;;;;;;29.01;36.63;98761.72;6092449;23;20109;-66
2022/05/12 10:19:16;;;;;;;4.70;1.88;;;;;;;27.35;40.70;98756.28;6124669;23;20033;-66
2022/05/12 10:22:44;;;;;;;5.38;1.88;;;;;;;26.55;45.16;98756.41;6125076;23;20028;-72
2022/05/12 10:25:59;;;;;;;4.60;1.80;;;;;;;26.62;45.34;98746.63;6115932;23;20032;-66
2022/05/12 10:29:20;;;;;;;4.22;2.17;;;;;;;27.34;43.34;98733.66;6083840;23;20499;-68
2022/05/12 10:32:23;;;;;;;5.90;1.92;;;;;;;28.74;38.00;98731.97;6094754;23;20116;-66
2022/05/12 10:35:30;;;;;;;12.27;2.50;;;;;;;28.85;38.29;98707.09;6074205;23;20096;-65
2022/05/12 10:38:24;;;;;;;12.55;2.85;;;;;;;29.06;35.44;98711.03;6094419;23;20440;-69
2022/05/12 10:41:14;;;;;;;;;;;;;;;29.85;36.62;98726.59;6206490;23;20035;-66
2022/05/12 10:44:17;;;;;;;6.57;2.75;;;;;;;29.41;37.39;98712.50;6235473;23;19922;-69
2022/05/12 10:47:25;;;;;;;4.07;2.70;;;;;;;28.20;38.14;98703.41;6247172;23;20106;-66
2022/05/12 10:50:09;;;;;;;4.13;2.40;;;;;;;28.42;36.88;98697.34;6246534;23;20070;-65
2022/05/12 10:53:08;;;;;;;5.55;2.40;;;;;;;29.00;35.84;98698.06;6236218;23;20031;-65
2022/05/12 10:56:08;;;;;;;5.57;2.47;;;;;;;29.12;37.49;98685.75;6234159;23;20086;-66
2022/05/12 10:59:10;;;;;;;4.80;2.30;;;;;;;28.69;37.97;98698.91;6247876;23;20027;-64
2022/05/12 11:02:02;;;;;;;12.52;2.67;;;;;;;28.03;38.95;98681.72;6246608;23;20481;-64
2022/05/12 11:05:00;;;;;;;5.53;2.40;;;;;;;27.76;39.88;98674.59;6236253;23;20114;-68
2022/05/12 11:07:50;;;;;;;5.75;2.50;;;;;;;27.47;41.47;98674.16;6245932;23;20046;-66
2022/05/12 11:10:44;;;;;;;5.60;2.30;;;;;;;27.45;42.94;98673.44;6247946;23;20454;-65
2022/05/12 11:13:43;;;;;;;12.35;2.78;;;;;;;26.56;44.50;98670.22;6248128;23;20035;-64
2022/05/12 11:16:44;;;;;;;5.00;2.40;;;;;;;26.13;48.42;98653.84;6238288;23;20425;-65
2022/05/12 11:19:28;;;;;;;4.32;2.38;;;;;;;26.39;48.52;98658.38;6246117;23;20047;-64
2022/05/12 11:22:30;;;;;;;5.55;2.33;;;;;;;27.24;45.57;98653.06;6226620;23;20476;-67
2022/05/12 11:25:34;;;;;;;4.47;2.10;;;;;;;27.48;41.34;98655.91;6249340;23;20031;-65
2022/05/12 11:31:59;;;;;;;6.50;2.30;;;;;;;26.89;45.74;98639.59;6217264;23;20085;-66
2022/05/12 11:34:55;;;;;;;4.35;2.03;;;;;;;26.72;45.79;98637.75;6249718;23;20258;-65
2022/05/12 11:37:41;;;;;;;6.00;2.45;;;;;;;27.02;45.75;98627.25;6236381;23;20082;-65
2022/05/12 11:40:43;;;;;;;5.25;2.22;;;;;;;26.83;44.60;98626.59;6246390;23;20077;-64
2022/05/12 11:47:03;;;;;;;4.47;1.85;;;;;;;25.95;47.68;98606.81;6241283;23;20681;-66
2022/05/12 11:49:57;;;;;;;3.90;2.28;;;;;;;26.16;49.38;98620.94;6228617;23;20443;-66
2022/05/12 11:53:12;;;;;;;7.15;2.25;;;;;;;27.04;46.01;98608.03;6226797;23;20031;-64
2022/05/12 11:55:56;;;;;;;6.60;2.28;;;;;;;26.77;44.87;98619.09;6228699;23;20809;-63
2022/05/12 11:58:40;;;;;;;;;;;;;;;26.48;47.03;98619.34;6251394;23;20081;-64
2022/05/12 12:01:27;;;;;;;7.70;2.38;;;;;;;25.98;49.29;98593.75;6250363;23;19969;-66
2022/05/12 12:04:15;;;;;;;9.90;2.22;;;;;;;25.11;52.28;98603.38;6195545;23;20074;-71
2022/05/12 12:07:01;;;;;;;3.30;2.20;;;;;;;24.85;53.72;98598.78;6228421;23;20097;-66
2022/05/12 12:09:45;;;;;;;7.10;1.83;;;;;;;24.59;56.26;98601.25;6249619;23;20354;-65
2022/05/12 12:12:44;;;;;;;10.60;2.50;;;;;;;24.74;58.03;98590.81;6218340;23;20031;-64
2022/05/12 12:15:34;;;;;;;5.70;2.83;;;;;;;24.57;59.74;98591.56;6197569;23;20027;-68
2022/05/12 12:18:21;;;;;;;7.03;2.35;;;;;;;24.45;59.29;98573.75;6195990;23;20081;-66
2022/05/12 12:21:27;;;;;;;8.85;2.47;;;;;;;24.50;60.17;98617.53;6197267;23;20074;-64
2022/05/12 12:24:18;;;;;;;9.40;2.15;;;;;;;24.24;63.73;98592.00;6217336;23;20058;-65
2022/05/12 12:27:29;;;;;;;7.25;2.38;;;;;;;24.15;65.10;98579.34;6239705;23;20059;-63
2022/05/12 12:30:23;;;;;;;3.85;2.13;;;;;;;24.57;63.89;98568.00;6241150;23;20031;-66
2022/05/12 12:33:19;;;;;;;6.50;2.50;;;;;;;24.85;64.30;98566.25;6216156;23;20077;-68
2022/05/12 12:36:10;;;;;;;3.60;2.08;;;;;;;25.10;62.75;98579.97;6197444;23;20030;-64
2022/05/12 12:38:54;;;;;;;3.47;2.25;;;;;;;25.27;61.92;98584.59;6196701;23;20067;-64
2022/05/12 12:41:45;;;;;;;5.35;2.28;;;;;;;25.36;61.07;98566.59;6247611;22;20059;-64
2022/05/12 12:44:29;;;;;;;7.80;2.45;;;;;;;25.39;61.92;98561.69;6250944;23;20039;-64
2022/05/12 12:47:27;;;;;;;3.95;2.10;;;;;;;24.81;66.37;98548.56;6247779;23;20031;-63
2022/05/12 12:50:50;;;;;;;8.05;2.38;;;;;;;25.10;65.62;98550.13;6215854;23;20031;-69
2022/05/12 12:56:41;;;;;;;5.05;2.17;;;;;;;24.25;70.42;98526.84;6124532;23;20526;-62
2022/05/12 12:59:26;;;;;;;5.90;2.08;;;;;;;24.18;71.58;98528.47;6114917;23;20307;-65
2022/05/12 13:02:32;;;;;;;4.63;2.20;;;;;;;24.20;72.77;98515.59;6125103;23;20028;-64
2022/05/12 13:05:20;;;;;;;5.30;2.20;;;;;;;24.08;73.48;98515.91;6123866;23;20029;-65
2022/05/12 13:08:11;;;;;;;5.47;2.00;;;;;;;24.15;73.23;98515.19;6117009;23;20073;-65
2022/05/12 13:10:59;;;;;;;5.57;2.33;;;;;;;24.02;75.21;98506.53;6107120;23;20029;-64
2022/05/12 13:13:50;;;;;;;6.10;2.63;;;;;;;24.30;75.83;98521.88;6115993;23;20033;-64
2022/05/12 13:16:40;;;;;;;4.88;2.53;;;;;;;23.73;77.50;98504.81;6125492;23;20088;-64
2022/05/12 13:19:28;;;;;;;4.10;2.38;;;;;;;23.93;78.22;98510.09;6095700;23;20208;-66
2022/05/12 13:22:23;;;;;;;7.80;2.60;;;;;;;23.87;80.44;98493.53;6125678;23;20025;-73
2022/05/12 13:25:11;;;;;;;4.50;2.42;;;;;;;23.68;81.86;98499.81;6127817;23;20329;-65
2022/05/12 13:27:57;;;;;;;6.05;2.53;;;;;;;23.65;81.98;98493.84;6224809;23;20481;-65
2022/05/12 13:30:49;;;;;;;6.28;2.92;;;;;;;23.74;82.93;98501.09;6217944;23;20030;-64
2022/05/12 13:33:34;;;;;;;4.78;2.53;;;;;;;23.63;83.68;98483.16;6227936;23;20057;-64
2022/05/12 13:36:24;;;;;;;4.22;2.33;;;;;;;23.48;84.14;98484.56;6248567;23;20484;-65
2022/05/12 13:39:10;;;;;;;4.80;2.10;;;;;;;23.45;86.49;98457.78;6217887;23;20031;-65
2022/05/12 13:42:01;;;;;;;9.23;3.15;;;;;;;23.28;87.96;98463.06;6206158;23;20070;-62